Time;durP1;ratioP1;P1;durP2;ratioP2;P2;SDS_P1;SDS_P2;PMS_P1;PMS_P2;Temp;Humidity;BMP_temperature;BMP_pressure;BME280_temperature;BME280_humidity;BME280_pressure;Samples;Min_cycle;Max_cycle;Signal;HPM_P1;HPM_P2
2022/05/01 02:21:40;;;;;;;;;;;;;;;;;;5130462;27;19911;-79
2022/05/01 02:24:06;;;;;;;;;;;;;;;;;;5130334;28;19918;-79
2022/05/01 02:26:32;;;;;;;;;;;;;;;;;;5131154;28;19951;-79
2022/05/01 02:28:59;;;;;;;;;;;;;;;;;;5111911;28;19997;-79
2022/05/01 02:31:26;;;;;;;;;;;;;;;;;;5130947;28;19907;-79
2022/05/01 02:33:52;;;;;;;;;;;;;;;;;;5112000;28;20008;-72
2022/05/01 02:36:18;;;;;;;;;;;;;;;;;;5112350;28;20359;-79
2022/05/01 02:38:46;;;;;;;;;;;;;;;;;;5110159;28;19911;-79
2022/05/01 02:41:13;;;;;;;;;;;;;;;;;;5109298;28;19912;-79
2022/05/01 02:43:38;;;;;;;;;;;;;;;;;;5110126;28;19908;-79
2022/05/01 02:46:04;;;;;;;;;;;;;;;;;;5091018;28;20319;-79
2022/05/01 02:48:30;;;;;;;;;;;;;;;;;;5110182;28;19946;-79
2022/05/01 02:50:56;;;;;;;;;;;;;;;;;;5091035;28;20013;-78
2022/05/01 02:53:22;;;;;;;;;;;;;;;;;;5091619;28;19916;-78
2022/05/01 02:55:49;;;;;;;;;;;;;;;;;;5109588;28;19908;-79
2022/05/01 02:58:14;;;;;;;;;;;;;;;;;;5090781;28;19994;-79
2022/05/01 03:00:40;;;;;;;;;;;;;;;;;;5109810;28;19996;-80
2022/05/01 03:03:06;;;;;;;;;;;;;;;;;;5109415;28;19916;-79
2022/05/01 03:05:32;;;;;;;;;;;;;;;;;;5109838;28;19916;-79
2022/05/01 03:07:58;;;;;;;;;;;;;;;;;;5108805;28;20372;-79
2022/05/01 03:10:24;;;;;;;;;;;;;;;;;;5109641;28;19908;-79
2022/05/01 03:12:50;;;;;;;;;;;;;;;;;;5109597;28;20272;-79
2022/05/01 03:15:15;;;;;;;;;;;;;;;;;;5090818;28;19912;-79
2022/05/01 03:23:10;;;;;;;;;;;;;;;;;;5108783;28;19966;-79
2022/05/01 03:25:36;;;;;;;;;;;;;;;;;;5109342;28;20318;-79
2022/05/01 03:28:02;;;;;;;;;;;;;;;;;;5108467;28;19954;-79
2022/05/01 03:30:28;;;;;;;;;;;;;;;;;;5108787;28;19915;-79
2022/05/01 03:32:54;;;;;;;;;;;;;;;;;;5095011;28;20387;-72
2022/05/01 03:35:20;;;;;;;;;;;;;;;;;;5095151;28;19975;-79
2022/05/01 03:37:46;;;;;;;;;;;;;;;;;;5095519;28;19934;-79
2022/05/01 03:40:12;;;;;;;;;;;;;;;;;;5076453;28;19962;-79
2022/05/01 03:42:38;;;;;;;;;;;;;;;;;;5095429;28;19919;-79
2022/05/01 03:45:04;;;;;;;;;;;;;;;;;;5094545;28;19908;-79
2022/05/01 03:47:32;;;;;;;;;;;;;;;;;;5095729;28;20405;-78
2022/05/01 03:49:58;;;;;;;;;;;;;;;;;;5094734;28;19912;-72
2022/05/01 03:52:24;;;;;;;;;;;;;;;;;;5095250;28;20372;-78
2022/05/01 03:54:50;;;;;;;;;;;;;;;;;;5077024;28;19908;-78
2022/05/01 03:57:16;;;;;;;;;;;;;;;;;;5076267;28;20005;-78
2022/05/01 03:59:42;;;;;;;;;;;;;;;;;;5095044;28;19912;-78
2022/05/01 04:02:07;;;;;;;;;;;;;;;;;;5076120;28;20272;-78
2022/05/01 04:04:35;;;;;;;;;;;;;;;;;;5094712;28;19919;-79
2022/05/01 04:07:01;;;;;;;;;;;;;;;;;;5075950;28;19915;-78
2022/05/01 04:09:28;;;;;;;;;;;;;;;;;;5094845;28;19912;-78
2022/05/01 04:11:54;;;;;;;;;;;;;;;;;;5094832;28;19962;-79
2022/05/01 04:14:20;;;;;;;;;;;;;;;;;;5094271;28;19916;-78
2022/05/01 04:16:46;;;;;;;;;;;;;;;;;;5076619;28;19908;-79
2022/05/01 04:19:13;;;;;;;;;;;;;;;;;;5093410;28;20380;-78
2022/05/01 04:21:39;;;;;;;;;;;;;;;;;;5094911;28;19912;-78
2022/05/01 04:24:05;;;;;;;;;;;;;;;;;;5093852;28;20263;-79
2022/05/01 04:26:31;;;;;;;;;;;;;;;;;;5094870;28;19915;-79
2022/05/01 04:31:41;;;;;;;;;;;;;;;;;;5094338;28;20008;-78
2022/05/01 04:34:07;;;;;;;;;;;;;;;;;;5093501;28;19962;-78
2022/05/01 04:36:33;;;;;;;;;;;;;;;;;;5076374;28;20268;-78
2022/05/01 04:38:59;;;;;;;;;;;;;;;;;;5093803;28;19916;-72
2022/05/01 04:41:25;;;;;;;;;;;;;;;;;;5094202;28;19943;-79
2022/05/01 04:43:51;;;;;;;;;;;;;;;;;;5075285;28;19912;-79
2022/05/01 04:46:17;;;;;;;;;;;;;;;;;;5093934;28;19915;-79
2022/05/01 04:48:43;;;;;;;;;;;;;;;;;;5075935;28;19912;-79
2022/05/01 04:51:09;;;;;;;;;;;;;;;;;;5093498;28;19912;-79
2022/05/01 04:53:35;;;;;;;;;;;;;;;;;;5094250;28;19912;-79
2022/05/01 04:57:05;;;;;;;;;;;;;;;;;;5093542;28;19908;-72
2022/05/01 04:58:47;;;;;;;;;;;;;;;;;;5093723;28;19908;-79
2022/05/01 05:01:13;;;;;;;;;;;;;;;;;;5075138;28;19923;-79
2022/05/01 05:03:39;;;;;;;;;;;;;;;;;;5094015;28;19959;-78
2022/05/01 05:06:05;;;;;;;;;;;;;;;;;;5093095;28;19908;-78
2022/05/01 05:11:15;;;;;;;;;;;;;;;;;;5092846;28;19915;-78
2022/05/01 05:13:41;;;;;;;;;;;;;;;;;;5093972;28;19909;-78
2022/05/01 05:16:12;;;;;;;;;;;;;;;;;;5074851;28;20272;-78
2022/05/01 05:18:39;;;;;;;;;;;;;;;;;;5093779;28;20383;-78
2022/05/01 05:21:05;;;;;;;;;;;;;;;;;;5074353;28;19926;-78
2022/05/01 05:23:31;;;;;;;;;;;;;;;;;;5093505;28;20362;-78
2022/05/01 05:25:57;;;;;;;;;;;;;;;;;;5093181;28;19908;-79
2022/05/01 05:28:23;;;;;;;;;;;;;;;;;;5092605;28;20390;-78
2022/05/01 05:30:49;;;;;;;;;;;;;;;;;;5075297;28;19908;-79
2022/05/01 05:33:15;;;;;;;;;;;;;;;;;;5092532;28;19959;-78
2022/05/01 05:35:41;;;;;;;;;;;;;;;;;;5093291;28;20014;-78
2022/05/01 05:38:07;;;;;;;;;;;;;;;;;;5092642;28;20372;-78
2022/05/01 05:40:33;;;;;;;;;;;;;;;;;;5092896;28;19931;-77
2022/05/01 05:42:59;;;;;;;;;;;;;;;;;;5093582;28;19912;-78
2022/05/01 05:45:24;;;;;;;;;;;;;;;;;;5092535;28;19929;-78
2022/05/01 05:47:50;;;;;;;;;;;;;;;;;;5092929;28;19934;-78
2022/05/01 05:50:16;;;;;;;;;;;;;;;;;;5074167;28;19912;-78
2022/05/01 05:52:42;;;;;;;;;;;;;;;;;;5092740;28;19919;-78
2022/05/01 05:55:08;;;;;;;;;;;;;;;;;;5091882;28;19915;-74
2022/05/01 05:57:34;;;;;;;;;;;;;;;;;;5093153;28;19915;-78
2022/05/01 06:00:00;;;;;;;;;;;;;;;;;;5092871;28;19952;-78
2022/05/01 06:02:26;;;;;;;;;;;;;;;;;;5092123;28;19915;-77
2022/05/01 06:04:52;;;;;;;;;;;;;;;;;;5092594;28;19998;-77
2022/05/01 06:07:18;;;;;;;;;;;;;;;;;;5091737;28;19908;-79
2022/05/01 06:09:43;;;;;;;;;;;;;;;;;;5092720;28;19912;-79
2022/05/01 06:12:09;;;;;;;;;;;;;;;;;;5073792;28;19916;-78
2022/05/01 06:14:36;;;;;;;;;;;;;;;;;;5092718;28;19915;-79
2022/05/01 06:17:02;;;;;;;;;;;;;;;;;;5093006;28;19999;-78
2022/05/01 06:19:27;;;;;;;;;;;;;;;;;;5091508;28;20023;-79
2022/05/01 06:21:53;;;;;;;;;;;;;;;;;;5092269;28;19933;-78
2022/05/01 06:24:20;;;;;;;;;;;;;;;;;;5091866;28;19951;-79
2022/05/01 06:26:46;;;;;;;;;;;;;;;;;;5092634;28;19920;-78
2022/05/01 06:29:12;;;;;;;;;;;;;;;;;;5092246;28;19961;-80
2022/05/01 06:31:38;;;;;;;;;;;;;;;;;;5093001;28;19908;-79
2022/05/01 06:34:03;;;;;;;;;;;;;;;;;;5092938;28;19953;-78
2022/05/01 06:36:29;;;;;;;;;;;;;;;;;;5092632;28;19908;-79
2022/05/01 06:38:55;;;;;;;;;;;;;;;;;;5092897;28;19908;-78
2022/05/01 06:41:21;;;;;;;;;;;;;;;;;;5091820;28;19939;-78
2022/05/01 06:43:47;;;;;;;;;;;;;;;;;;5092518;28;20275;-79
2022/05/01 06:46:13;;;;;;;;;;;;;;;;;;5091367;28;19912;-78
2022/05/01 06:48:39;;;;;;;;;;;;;;;;;;5092515;28;19948;-78
2022/05/01 06:51:05;;;;;;;;;;;;;;;;;;5092850;28;19951;-78
2022/05/01 06:53:31;;;;;;;;;;;;;;;;;;5092743;28;20006;-78
2022/05/01 06:55:57;;;;;;;;;;;;;;;;;;5092517;28;20355;-78
2022/05/01 06:58:23;;;;;;;;;;;;;;;;;;5091555;28;19919;-78
2022/05/01 07:00:51;;;;;;;;;;;;;;;;;;5092250;28;20044;-79
2022/05/01 07:03:17;;;;;;;;;;;;;;;;;;5091645;28;19995;-78
2022/05/01 07:05:43;;;;;;;;;;;;;;;;;;5092032;28;19966;-78
2022/05/01 07:08:09;;;;;;;;;;;;;;;;;;5095487;28;19908;-71
2022/05/01 07:10:35;;;;;;;;;;;;;;;;;;5096152;28;19912;-78
2022/05/01 07:13:01;;;;;;;;;;;;;;;;;;5077856;28;19908;-76
2022/05/01 07:15:27;;;;;;;;;;;;;;;;;;5077432;28;20520;-78
2022/05/01 07:17:53;;;;;;;;;;;;;;;;;;5095807;28;19908;-78
2022/05/01 07:20:18;;;;;;;;;;;;;;;;;;5094756;28;20011;-78
2022/05/01 07:22:44;;;;;;;;;;;;;;;;;;5095826;28;19913;-78
2022/05/01 07:25:10;;;;;;;;;;;;;;;;;;5095176;28;20391;-70
2022/05/01 07:27:36;;;;;;;;;;;;;;;;;;5095252;28;20008;-78
2022/05/01 07:30:02;;;;;;;;;;;;;;;;;;5095543;28;20300;-77
2022/05/01 07:32:28;;;;;;;;;;;;;;;;;;5094793;28;19908;-78
2022/05/01 07:34:55;;;;;;;;;;;;;;;;;;5095694;28;19912;-78
2022/05/01 07:37:24;;;;;;;;;;;;;;;;;;5094858;28;19977;-78
2022/05/01 07:39:49;;;;;;;;;;;;;;;;;;5095665;28;19966;-78
2022/05/01 07:42:15;;;;;;;;;;;;;;;;;;5076513;28;19912;-77
2022/05/01 07:44:41;;;;;;;;;;;;;;;;;;5095412;28;19908;-76
2022/05/01 07:47:07;;;;;;;;;;;;;;;;;;5094815;28;20405;-77
2022/05/01 07:49:33;;;;;;;;;;;;;;;;;;5094183;28;19954;-77
2022/05/01 07:51:59;;;;;;;;;;;;;;;;;;5095277;28;20368;-77
2022/05/01 07:54:25;;;;;;;;;;;;;;;;;;5094439;28;19937;-77
2022/05/01 07:56:51;;;;;;;;;;;;;;;;;;5095173;28;19908;-77
2022/05/01 07:59:17;;;;;;;;;;;;;;;;;;5094271;28;20408;-77
2022/05/01 08:01:42;;;;;;;;;;;;;;;;;;5095225;28;20291;-77
2022/05/01 08:06:53;;;;;;;;;;;;;;;;;;5091155;28;19923;-74
2022/05/01 08:09:19;;;;;;;;;;;;;;;;;;5093342;28;19908;-76
2022/05/01 08:11:45;;;;;;;;;;;;;;;;;;5076656;28;20285;-76
2022/05/01 08:14:12;;;;;;;;;;;;;;;;;;5094492;28;19908;-71
2022/05/01 08:16:38;;;;;;;;;;;;;;;;;;5094882;28;19908;-75
2022/05/01 08:21:48;;;;;;;;;;;;;;;;;;5094617;28;19931;-77
2022/05/01 08:24:15;;;;;;;;;;;;;;;;;;5094257;28;19908;-70
2022/05/01 08:26:46;;;;;;;;;;;;;;;;;;5094612;28;19908;-76
2022/05/01 08:29:12;;;;;;;;;;;;;;;;;;5094333;28;19912;-71
2022/05/01 08:31:39;;;;;;;;;;;;;;;;;;5094146;28;19908;-75
2022/05/01 08:34:05;;;;;;;;;;;;;;;;;;5076317;28;20350;-75
2022/05/01 08:36:31;;;;;;;;;;;;;;;;;;5075452;28;20023;-75
2022/05/01 08:38:57;;;;;;;;;;;;;;;;;;5094313;28;19908;-75
2022/05/01 08:41:23;;;;;;;;;;;;;;;;;;5093323;28;19916;-75
2022/05/01 08:43:49;;;;;;;;;;;;;;;;;;5094448;28;19915;-75
2022/05/01 08:46:15;;;;;;;;;;;;;;;;;;5093733;28;19908;-71
2022/05/01 08:48:40;;;;;;;;;;;;;;;;;;5093914;28;19948;-75
2022/05/01 08:51:06;;;;;;;;;;;;;;;;;;5075753;28;19951;-76
2022/05/01 08:53:32;;;;;;;;;;;;;;;;;;5093298;28;20378;-74
2022/05/01 08:55:58;;;;;;;;;;;;;;;;;;5094072;28;19915;-75
2022/05/01 08:58:24;;;;;;;;;;;;;;;;;;5074936;28;20245;-75
2022/05/01 09:00:51;;;;;;;;;;;;;;;;;;5075617;28;19916;-76
2022/05/01 09:03:17;;;;;;;;;;;;;;;;;;5093097;28;19908;-73
2022/05/01 09:05:43;;;;;;;;;;;;;;;;;;5093961;28;19912;-75
2022/05/01 09:08:09;;;;;;;;;;;;;;;;;;5093486;28;19953;-75
2022/05/01 09:10:35;;;;;;;;;;;;;;;;;;5092831;28;20151;-75
2022/05/01 09:13:01;;;;;;;;;;;;;;;;;;5093266;28;20011;-75
2022/05/01 09:15:27;;;;;;;;;;;;;;;;;;5092628;28;20363;-75
2022/05/01 09:17:53;;;;;;;;;;;;;;;;;;5075260;28;19956;-75
2022/05/01 09:20:19;;;;;;;;;;;;;;;;;;5092310;28;20364;-74
2022/05/01 09:22:45;;;;;;;;;;;;;;;;;;5093405;28;19912;-75
2022/05/01 09:25:11;;;;;;;;;;;;;;;;;;5093583;28;19999;-78
2022/05/01 09:27:37;;;;;;;;;;;;;;;;;;5092636;28;19961;-75
2022/05/01 09:30:02;;;;;;;;;;;;;;;;;;5074584;28;20298;-76
2022/05/01 09:32:28;;;;;;;;;;;;;;;;;;5092232;28;19995;-75
2022/05/01 09:34:54;;;;;;;;;;;;;;;;;;5093189;28;19930;-75
2022/05/01 09:37:21;;;;;;;;;;;;;;;;;;5092101;28;19916;-75
2022/05/01 09:39:47;;;;;;;;;;;;;;;;;;5074887;28;19939;-75
2022/05/01 09:42:13;;;;;;;;;;;;;;;;;;5074923;28;20356;-76
2022/05/01 09:44:39;;;;;;;;;;;;;;;;;;5092309;28;19948;-75
2022/05/01 09:47:07;;;;;;;;;;;;;;;;;;5092890;28;19934;-75
2022/05/01 09:49:33;;;;;;;;;;;;;;;;;;5092145;28;19998;-75
2022/05/01 09:51:59;;;;;;;;;;;;;;;;;;5074745;28;20034;-76
2022/05/01 09:54:24;;;;;;;;;;;;;;;;;;5092098;28;20360;-75
2022/05/01 09:56:51;;;;;;;;;;;;;;;;;;5092898;28;19908;-75
2022/05/01 09:59:17;;;;;;;;;;;;;;;;;;5092548;28;19912;-71
2022/05/01 10:01:42;;;;;;;;;;;;;;;;;;5092549;28;20264;-76
2022/05/01 10:04:08;;;;;;;;;;;;;;;;;;5092246;28;19908;-75
2022/05/01 10:06:34;;;;;;;;;;;;;;;;;;5091775;28;19909;-75
2022/05/01 10:09:03;;;;;;;;;;;;;;;;;;5093112;28;20340;-75
2022/05/01 10:11:29;;;;;;;;;;;;;;;;;;5074001;28;19930;-75
2022/05/01 10:13:55;;;;;;;;;;;;;;;;;;5093229;28;20393;-75
2022/05/01 10:16:21;;;;;;;;;;;;;;;;;;5091937;28;19916;-71
2022/05/01 10:18:47;;;;;;;;;;;;;;;;;;5092703;28;20466;-75
2022/05/01 10:21:13;;;;;;;;;;;;;;;;;;5092254;28;20308;-75
2022/05/01 10:23:40;;;;;;;;;;;;;;;;;;5091872;28;19919;-75
2022/05/01 10:26:13;;;;;;;;;;;;;;;;;;5092678;28;19915;-75
2022/05/01 10:28:38;;;;;;;;;;;;;;;;;;5092173;28;19918;-75
2022/05/01 10:33:49;;;;;;;;;;;;;;;;;;5092394;28;19942;-75
2022/05/01 10:36:15;;;;;;;;;;;;;;;;;;5092486;28;19908;-75
2022/05/01 10:38:41;;;;;;;;;;;;;;;;;;5073812;28;19915;-75
2022/05/01 10:41:08;;;;;;;;;;;;;;;;;;5092996;28;19938;-75
2022/05/01 10:43:36;;;;;;;;;;;;;;;;;;5095996;28;19935;-75
2022/05/01 10:46:02;;;;;;;;;;;;;;;;;;5096982;28;19908;-75
2022/05/01 10:48:28;;;;;;;;;;;;;;;;;;5096276;28;19908;-75
2022/05/01 10:50:54;;;;;;;;;;;;;;;;;;5097091;28;19916;-76
2022/05/01 10:53:20;;;;;;;;;;;;;;;;;;5096233;28;20382;-74
2022/05/01 10:55:46;;;;;;;;;;;;;;;;;;5096778;28;20395;-75
2022/05/01 10:58:12;;;;;;;;;;;;;;;;;;5096473;28;19914;-75
2022/05/01 11:00:38;;;;;;;;;;;;;;;;;;5096133;28;19916;-75
2022/05/01 11:03:03;;;;;;;;;;;;;;;;;;5096699;28;19912;-75
2022/05/01 11:05:29;;;;;;;;;;;;;;;;;;5096260;28;19908;-74
2022/05/01 11:07:55;;;;;;;;;;;;;;;;;;5096594;28;19931;-75
2022/05/01 11:10:21;;;;;;;;;;;;;;;;;;5095886;28;19961;-74
2022/05/01 11:12:47;;;;;;;;;;;;;;;;;;5096372;28;20275;-75
2022/05/01 11:15:13;;;;;;;;;;;;;;;;;;5095846;28;19912;-75
2022/05/01 11:17:39;;;;;;;;;;;;;;;;;;5095381;28;19955;-74
2022/05/01 11:20:05;;;;;;;;;;;;;;;;;;5096210;28;19927;-74
2022/05/01 11:22:31;;;;;;;;;;;;;;;;;;5095698;28;19912;-74
2022/05/01 11:24:57;;;;;;;;;;;;;;;;;;5096355;28;20002;-75
2022/05/01 11:27:23;;;;;;;;;;;;;;;;;;5095254;28;19959;-74
2022/05/01 11:29:49;;;;;;;;;;;;;;;;;;5096248;28;19908;-75
2022/05/01 11:32:15;;;;;;;;;;;;;;;;;;5095740;28;20046;-75
2022/05/01 11:34:41;;;;;;;;;;;;;;;;;;5095465;28;19908;-75
2022/05/01 11:37:07;;;;;;;;;;;;;;;;;;5095981;28;19908;-75
2022/05/01 11:39:33;;;;;;;;;;;;;;;;;;5095287;28;22172;-75
2022/05/01 11:42:00;;;;;;;;;;;;;;;;;;5095891;28;19916;-75
2022/05/01 11:44:26;;;;;;;;;;;;;;;;;;5095282;28;19912;-74
2022/05/01 11:46:52;;;;;;;;;;;;;;;;;;5095688;28;19908;-75
2022/05/01 11:49:18;;;;;;;;;;;;;;;;;;5095755;28;19912;-74
2022/05/01 11:51:45;;;;;;;;;;;;;;;;;;5095074;28;19916;-74
2022/05/01 11:54:11;;;;;;;;;;;;;;;;;;5095505;28;19912;-74
2022/05/01 12:02:25;;;;;;;;;;;;;;;;;;5095415;28;19954;-74
2022/05/01 12:04:51;;;;;;;;;;;;;;;;;;5095324;28;19931;-74
2022/05/01 12:07:17;;;;;;;;;;;;;;;;;;5095172;28;20356;-74
2022/05/01 12:09:43;;;;;;;;;;;;;;;;;;5094752;28;20388;-74
2022/05/01 12:12:11;;;;;;;;;;;;;;;;;;5095338;28;20347;-74
2022/05/01 12:14:37;;;;;;;;;;;;;;;;;;5094681;28;19908;-74
2022/05/01 12:17:03;;;;;;;;;;;;;;;;;;5095161;28;20399;-74
2022/05/01 12:19:29;;;;;;;;;;;;;;;;;;5094224;28;19920;-74
2022/05/01 12:21:55;;;;;;;;;;;;;;;;;;5095363;28;19920;-74
2022/05/01 12:24:21;;;;;;;;;;;;;;;;;;5094798;28;19915;-74
2022/05/01 12:26:49;;;;;;;;;;;;;;;;;;5094419;28;20360;-74
2022/05/01 12:29:15;;;;;;;;;;;;;;;;;;5094865;28;19908;-74
2022/05/01 12:31:41;;;;;;;;;;;;;;;;;;5093979;28;19931;-74
2022/05/01 12:34:07;;;;;;;;;;;;;;;;;;5094838;28;19908;-74
2022/05/01 12:36:32;;;;;;;;;;;;;;;;;;5093949;28;19955;-74
2022/05/01 12:38:58;;;;;;;;;;;;;;;;;;5094995;28;20416;-74
2022/05/01 12:44:09;;;;;;;;;;;;;;;;;;5094363;28;19915;-74
2022/05/01 12:46:35;;;;;;;;;;;;;;;;;;5094006;28;19912;-74
2022/05/01 12:49:02;;;;;;;;;;;;;;;;;;5094380;28;19909;-74
2022/05/01 12:51:28;;;;;;;;;;;;;;;;;;5093929;28;19912;-74
2022/05/01 12:53:54;;;;;;;;;;;;;;;;;;5094538;28;19912;-74
2022/05/01 12:56:20;;;;;;;;;;;;;;;;;;5094409;28;20356;-74
2022/05/01 12:58:46;;;;;;;;;;;;;;;;;;5093597;28;19915;-74
2022/05/01 13:01:12;;;;;;;;;;;;;;;;;;5094261;28;19912;-74
2022/05/01 13:03:38;;;;;;;;;;;;;;;;;;5092955;28;20046;-74
2022/05/01 13:06:04;;;;;;;;;;;;;;;;;;5093931;28;19912;-74
2022/05/01 13:08:30;;;;;;;;;;;;;;;;;;5093551;28;19915;-74
2022/05/01 13:10:56;;;;;;;;;;;;;;;;;;5094191;28;19912;-74
2022/05/01 13:13:22;;;;;;;;;;;;;;;;;;5094170;28;19914;-74
2022/05/01 13:15:47;;;;;;;;;;;;;;;;;;5093501;28;20103;-74
2022/05/01 13:18:13;;;;;;;;;;;;;;;;;;5094293;28;19959;-74
2022/05/01 13:20:39;;;;;;;;;;;;;;;;;;5093333;28;19920;-74
2022/05/01 13:23:05;;;;;;;;;;;;;;;;;;5093679;28;19912;-74
2022/05/01 13:25:31;;;;;;;;;;;;;;;;;;5093253;28;19912;-74
2022/05/01 13:27:57;;;;;;;;;;;;;;;;;;5093962;28;19931;-74
2022/05/01 13:30:23;;;;;;;;;;;;;;;;;;5093557;28;19908;-75
2022/05/01 13:32:49;;;;;;;;;;;;;;;;;;5093195;28;20134;-74
2022/05/01 13:35:15;;;;;;;;;;;;;;;;;;5093658;28;20389;-74
2022/05/01 13:37:41;;;;;;;;;;;;;;;;;;5093043;28;19908;-74
2022/05/01 13:45:36;;;;;;;;;;;;;;;;;;5092811;28;19954;-74
2022/05/01 13:48:02;;;;;;;;;;;;;;;;;;5093459;28;19908;-75
2022/05/01 13:50:28;;;;;;;;;;;;;;;;;;5093155;28;19918;-74
2022/05/01 13:52:54;;;;;;;;;;;;;;;;;;5092609;28;19916;-74
2022/05/01 13:55:20;;;;;;;;;;;;;;;;;;5093415;28;19953;-74
2022/05/01 13:57:46;;;;;;;;;;;;;;;;;;5092440;28;19910;-74
2022/05/01 14:00:13;;;;;;;;;;;;;;;;;;5075152;28;20014;-74
2022/05/01 14:02:41;;;;;;;;;;;;;;;;;;5092742;28;19954;-74
2022/05/01 14:05:08;;;;;;;;;;;;;;;;;;5093283;28;19908;-74
2022/05/01 14:07:34;;;;;;;;;;;;;;;;;;5092675;28;19958;-74
2022/05/01 14:10:00;;;;;;;;;;;;;;;;;;5093338;28;19912;-74
2022/05/01 14:12:26;;;;;;;;;;;;;;;;;;5092409;28;19907;-75
2022/05/01 14:14:51;;;;;;;;;;;;;;;;;;5091815;28;19909;-75
2022/05/01 14:17:17;;;;;;;;;;;;;;;;;;5074957;28;19934;-74
2022/05/01 14:19:43;;;;;;;;;;;;;;;;;;5091787;28;19979;-74
2022/05/01 14:22:09;;;;;;;;;;;;;;;;;;5093055;28;20003;-75
2022/05/01 14:24:35;;;;;;;;;;;;;;;;;;5092459;28;19916;-74
2022/05/01 14:27:01;;;;;;;;;;;;;;;;;;5092996;28;19908;-75
2022/05/01 14:29:27;;;;;;;;;;;;;;;;;;5092996;28;19951;-74
2022/05/01 14:31:53;;;;;;;;;;;;;;;;;;5074341;28;20009;-74
2022/05/01 14:34:19;;;;;;;;;;;;;;;;;;5092876;28;19912;-74
2022/05/01 14:36:45;;;;;;;;;;;;;;;;;;5092664;28;20280;-74
2022/05/01 14:39:11;;;;;;;;;;;;;;;;;;5092867;28;19908;-75
2022/05/01 14:41:37;;;;;;;;;;;;;;;;;;5092282;28;20019;-74
2022/05/01 14:44:03;;;;;;;;;;;;;;;;;;5092847;28;19915;-75
2022/05/01 14:46:29;;;;;;;;;;;;;;;;;;5074351;28;19908;-75
2022/05/01 14:48:55;;;;;;;;;;;;;;;;;;5091529;28;19905;-75
2022/05/01 14:51:21;;;;;;;;;;;;;;;;;;5092885;28;20360;-75
2022/05/01 14:53:47;;;;;;;;;;;;;;;;;;5092223;28;19947;-75
2022/05/01 14:56:16;;;;;;;;;;;;;;;;;;5092747;28;19908;-75
2022/05/01 15:06:57;;;;;;;;;;;;;;;;;;5091915;28;19916;-75
2022/05/01 15:09:23;;;;;;;;;;;;;;;;;;5092606;28;19915;-75
2022/05/01 15:11:49;;;;;;;;;;;;;;;;;;5091999;28;19931;-74
2022/05/01 15:14:15;;;;;;;;;;;;;;;;;;5092665;28;19908;-75
2022/05/01 15:16:41;;;;;;;;;;;;;;;;;;5092029;28;19908;-74
2022/05/01 15:19:08;;;;;;;;;;;;;;;;;;5092494;28;19908;-74
2022/05/01 15:24:18;;;;;;;;;;;;;;;;;;5092296;28;19915;-74
2022/05/01 15:26:44;;;;;;;;;;;;;;;;;;5091606;28;19912;-74
2022/05/01 15:29:10;;;;;;;;;;;;;;;;;;5096153;28;20416;-75
2022/05/01 15:31:36;;;;;;;;;;;;;;;;;;5095858;28;19912;-70
2022/05/01 15:34:06;;;;;;;;;;;;;;;;;;5096208;28;20310;-75
2022/05/01 15:36:33;;;;;;;;;;;;;;;;;;5095967;28;19908;-75
2022/05/01 15:38:59;;;;;;;;;;;;;;;;;;5095431;28;19908;-74
2022/05/01 15:41:26;;;;;;;;;;;;;;;;;;5095867;28;19923;-74
2022/05/01 15:43:51;;;;;;;;;;;;;;;;;;5095238;28;19908;-74
2022/05/01 15:46:21;;;;;;;;;;;;;;;;;;5077674;28;19908;-74
2022/05/01 15:53:36;;;;;;;;;;;;;;;;;;5095159;28;19908;-74
2022/05/01 15:54:18;;;;;;;;;;;;;;;;;;5095520;28;19915;-74
2022/05/01 15:56:43;;;;;;;;;;;;;;;;;;5094972;28;19909;-74
2022/05/01 15:59:09;;;;;;;;;;;;;;;;;;5095942;28;19908;-74
2022/05/01 16:01:35;;;;;;;;;;;;;;;;;;5095531;28;19923;-74
2022/05/01 16:04:01;;;;;;;;;;;;;;;;;;5094918;28;19908;-74
2022/05/01 16:06:27;;;;;;;;;;;;;;;;;;5077299;28;19908;-74
2022/05/01 16:08:54;;;;;;;;;;;;;;;;;;5094821;28;19915;-74
2022/05/01 16:11:20;;;;;;;;;;;;;;;;;;5095364;28;19915;-74
2022/05/01 16:13:46;;;;;;;;;;;;;;;;;;5094733;28;20276;-74
2022/05/01 16:16:12;;;;;;;;;;;;;;;;;;5095257;28;20004;-74
2022/05/01 16:18:39;;;;;;;;;;;;;;;;;;5099253;28;19919;-73
2022/05/01 16:21:05;;;;;;;;;;;;;;;;;;5114991;28;19923;-71
2022/05/01 16:23:31;;;;;;;;;;;;;;;;;;5115556;28;19964;-72
2022/05/01 16:25:57;;;;;;;;;;;;;;;;;;5114900;28;19908;-71
2022/05/01 16:28:23;;;;;;;;;;;;;;;;;;5115804;28;19930;-72
2022/05/01 16:30:49;;;;;;;;;;;;;;;;;;5114766;28;20006;-72
2022/05/01 16:33:15;;;;;;;;;;;;;;;;;;5096425;28;20268;-71
2022/05/01 16:35:43;;;;;;;;;;;;;;;;;;5099088;28;19912;-71
2022/05/01 16:38:08;;;;;;;;;;;;;;;;;;5114687;28;19908;-72
2022/05/01 16:40:34;;;;;;;;;;;;;;;;;;5114798;28;19973;-72
2022/05/01 16:43:00;;;;;;;;;;;;;;;;;;5111891;28;20251;-72
2022/05/01 16:45:29;;;;;;;;;;;;;;;;;;5103349;28;20067;-72
2022/05/01 16:47:55;;;;;;;;;;;;;;;;;;5094425;28;19908;-72
2022/05/01 16:50:21;;;;;;;;;;;;;;;;;;5115301;28;19970;-72
2022/05/01 16:52:47;;;;;;;;;;;;;;;;;;5114318;28;20323;-72
2022/05/01 16:55:13;;;;;;;;;;;;;;;;;;5114860;28;19908;-72
2022/05/01 16:57:39;;;;;;;;;;;;;;;;;;5114841;28;19951;-72
2022/05/01 17:00:06;;;;;;;;;;;;;;;;;;5105154;28;19931;-72
2022/05/01 17:02:32;;;;;;;;;;;;;;;;;;5094424;28;19908;-72
2022/05/01 17:04:58;;;;;;;;;;;;;;;;;;5093641;28;19912;-72
2022/05/01 17:07:25;;;;;;;;;;;;;;;;;;5112872;28;19911;-72
2022/05/01 17:09:51;;;;;;;;;;;;;;;;;;5113426;28;19915;-72
2022/05/01 17:12:16;;;;;;;;;;;;;;;;;;5114589;28;20340;-73
2022/05/01 17:14:42;;;;;;;;;;;;;;;;;;5113634;28;19915;-70
2022/05/01 17:17:09;;;;;;;;;;;;;;;;;;5092918;28;20360;-72
2022/05/01 17:19:35;;;;;;;;;;;;;;;;;;5106022;28;20002;-73
2022/05/01 17:22:01;;;;;;;;;;;;;;;;;;5092744;28;20003;-73
2022/05/01 17:24:26;;;;;;;;;;;;;;;;;;5093573;28;19950;-73
2022/05/01 17:26:52;;;;;;;;;;;;;;;;;;5092703;28;19908;-74
2022/05/01 17:29:19;;;;;;;;;;;;;;;;;;5075355;28;20256;-74
2022/05/01 17:31:45;;;;;;;;;;;;;;;;;;5073085;28;19909;-70
2022/05/01 17:34:11;;;;;;;;;;;;;;;;;;5072840;28;19966;-74
2022/05/01 17:36:37;;;;;;;;;;;;;;;;;;5055230;28;19978;-74
2022/05/01 17:39:03;;;;;;;;;;;;;;;;;;5072241;28;20385;-73
2022/05/01 17:41:30;;;;;;;;;;;;;;;;;;5072942;28;19917;-73
2022/05/01 17:43:56;;;;;;;;;;;;;;;;;;5072024;28;19912;-74
2022/05/01 17:46:22;;;;;;;;;;;;;;;;;;5072949;28;19917;-74
2022/05/01 17:48:48;;;;;;;;;;;;;;;;;;5073145;28;19916;-70
2022/05/01 17:51:15;;;;;;;;;;;;;;;;;;5075783;28;19955;-73
2022/05/01 17:53:42;;;;;;;;;;;;;;;;;;5070833;28;19916;-74
2022/05/01 17:56:08;;;;;;;;;;;;;;;;;;5090003;28;19961;-73
2022/05/01 17:58:34;;;;;;;;;;;;;;;;;;5092620;28;19920;-73
2022/05/01 18:01:00;;;;;;;;;;;;;;;;;;5071828;28;20347;-74
2022/05/01 18:03:26;;;;;;;;;;;;;;;;;;5093022;28;20007;-74
2022/05/01 18:09:57;;;;;;;;;;;;;;;;;;5088288;28;19935;-74
2022/05/01 18:11:38;;;;;;;;;;;;;;;;;;5088626;28;20003;-73
2022/05/01 18:14:04;;;;;;;;;;;;;;;;;;5073646;28;20042;-77
2022/05/01 18:16:30;;;;;;;;;;;;;;;;;;5072981;28;19913;-75
2022/05/01 18:18:56;;;;;;;;;;;;;;;;;;5071529;28;20254;-86
2022/05/01 18:21:22;;;;;;;;;;;;;;;;;;5105307;28;20064;-78
2022/05/01 18:23:48;;;;;;;;;;;;;;;;;;5106895;28;19908;-73
2022/05/01 18:26:14;;;;;;;;;;;;;;;;;;5106287;28;19919;-78
2022/05/01 18:31:24;;;;;;;;;;;;;;;;;;5107575;28;19999;-77
2022/05/01 18:33:50;;;;;;;;;;;;;;;;;;5103498;28;20376;-75
2022/05/01 18:36:16;;;;;;;;;;;;;;;;;;5104289;28;19908;-77
2022/05/01 18:38:42;;;;;;;;;;;;;;;;;;5101465;28;20310;-77
2022/05/01 18:41:08;;;;;;;;;;;;;;;;;;5100199;28;20024;-76
2022/05/01 18:43:34;;;;;;;;;;;;;;;;;;5104476;28;19923;-77
2022/05/01 18:46:01;;;;;;;;;;;;;;;;;;5101616;28;19933;-77
2022/05/01 18:48:27;;;;;;;;;;;;;;;;;;5112029;28;19999;-77
2022/05/01 18:50:53;;;;;;;;;;;;;;;;;;5111221;28;20367;-74
2022/05/01 18:53:19;;;;;;;;;;;;;;;;;;5093742;28;20268;-76
2022/05/01 18:55:45;;;;;;;;;;;;;;;;;;5108779;28;20287;-75
2022/05/01 18:58:11;;;;;;;;;;;;;;;;;;5103043;28;19907;-74
2022/05/01 19:00:37;;;;;;;;;;;;;;;;;;5081657;28;19919;-74
2022/05/01 19:03:04;;;;;;;;;;;;;;;;;;5082014;28;19919;-75
2022/05/01 19:05:30;;;;;;;;;;;;;;;;;;5108262;28;20377;-75
2022/05/01 19:07:56;;;;;;;;;;;;;;;;;;5093755;28;20003;-76
2022/05/01 19:10:22;;;;;;;;;;;;;;;;;;5108516;28;19953;-75
2022/05/01 19:12:48;;;;;;;;;;;;;;;;;;5106942;28;19912;-76
2022/05/01 19:15:13;;;;;;;;;;;;;;;;;;5097880;28;19923;-76
2022/05/01 19:17:39;;;;;;;;;;;;;;;;;;5099686;28;19954;-76
2022/05/01 19:20:07;;;;;;;;;;;;;;;;;;5099334;28;19920;-75
2022/05/01 19:22:33;;;;;;;;;;;;;;;;;;5077426;28;19995;-75
2022/05/01 19:27:43;;;;;;;;;;;;;;;;;;5114609;28;19930;-76
2022/05/01 19:30:09;;;;;;;;;;;;;;;;;;5082227;28;19908;-76
2022/05/01 19:32:35;;;;;;;;;;;;;;;;;;5106459;28;19957;-76
2022/05/01 19:35:01;;;;;;;;;;;;;;;;;;5076803;28;19912;-76
2022/05/01 19:37:27;;;;;;;;;;;;;;;;;;5095130;28;19916;-76
2022/05/01 19:39:53;;;;;;;;;;;;;;;;;;5094914;28;19920;-71
2022/05/01 19:42:19;;;;;;;;;;;;;;;;;;5076851;28;19912;-76
2022/05/01 19:44:45;;;;;;;;;;;;;;;;;;5104616;28;20260;-77
2022/05/01 19:52:43;;;;;;;;;;;;;;;;;;5103546;28;19923;-76
2022/05/01 19:55:09;;;;;;;;;;;;;;;;;;5106406;28;19962;-76
2022/05/01 19:57:35;;;;;;;;;;;;;;;;;;5106483;28;20364;-75
2022/05/01 20:00:12;;;;;;;;;;;;;;;;;;5105747;28;19923;-75